sensor_id;sensor_type;location;lat;lon;timestamp;noise_LAeq;noise_LA_min;noise_LA_max;noise_LA01;noise_LA95
18377;Laerm;9315;52.624;13.544;2023-03-25T00:01:35;49.52;38.60;64.21;;
18377;Laerm;9315;52.624;13.544;2023-03-25T00:04:03;62.87;40.91;81.22;;
18377;Laerm;9315;52.624;13.544;2023-03-25T00:06:31;43.10;38.69;51.61;;
18377;Laerm;9315;52.624;13.544;2023-03-25T00:09:02;56.26;38.86;75.10;;
18377;Laerm;9315;52.624;13.544;2023-03-25T00:11:30;63.47;39.65;78.97;;
18377;Laerm;9315;52.624;13.544;2023-03-25T00:13:57;65.35;41.59;81.80;;
18377;Laerm;9315;52.624;13.544;2023-03-25T00:16:24;60.85;41.23;73.90;;
18377;Laerm;9315;52.624;13.544;2023-03-25T00:18:53;63.49;39.08;83.59;;
18377;Laerm;9315;52.624;13.544;2023-03-25T00:21:20;55.17;37.92;74.77;;
18377;Laerm;9315;52.624;13.544;2023-03-25T00:23:49;53.73;40.23;68.14;;
18377;Laerm;9315;52.624;13.544;2023-03-25T00:26:16;60.09;39.87;77.04;;
18377;Laerm;9315;52.624;13.544;2023-03-25T00:28:43;55.96;40.41;72.16;;
18377;Laerm;9315;52.624;13.544;2023-03-25T00:31:13;61.19;40.42;74.70;;
18377;Laerm;9315;52.624;13.544;2023-03-25T00:33:44;58.34;39.29;72.08;;
18377;Laerm;9315;52.624;13.544;2023-03-25T00:36:12;58.36;38.85;75.89;;
18377;Laerm;9315;52.624;13.544;2023-03-25T00:38:41;57.26;37.70;74.55;;
18377;Laerm;9315;52.624;13.544;2023-03-25T00:41:16;60.69;40.28;75.42;;
18377;Laerm;9315;52.624;13.544;2023-03-25T00:43:44;57.61;39.09;75.75;;
18377;Laerm;9315;52.624;13.544;2023-03-25T00:46:12;51.49;39.21;69.67;;
18377;Laerm;9315;52.624;13.544;2023-03-25T00:48:40;56.90;41.69;70.64;;
18377;Laerm;9315;52.624;13.544;2023-03-25T00:51:08;54.91;39.40;73.89;;
18377;Laerm;9315;52.624;13.544;2023-03-25T00:53:37;54.98;38.60;75.20;;
18377;Laerm;9315;52.624;13.544;2023-03-25T00:56:05;52.39;37.53;68.82;;
18377;Laerm;9315;52.624;13.544;2023-03-25T00:58:33;53.12;39.27;69.20;;
18377;Laerm;9315;52.624;13.544;2023-03-25T01:01:00;43.93;39.43;52.47;;
18377;Laerm;9315;52.624;13.544;2023-03-25T01:03:28;53.84;40.39;71.29;;
18377;Laerm;9315;52.624;13.544;2023-03-25T01:05:58;55.11;41.59;69.25;;
18377;Laerm;9315;52.624;13.544;2023-03-25T01:08:25;53.20;37.85;69.88;;
18377;Laerm;9315;52.624;13.544;2023-03-25T01:10:55;57.46;38.99;73.73;;
18377;Laerm;9315;52.624;13.544;2023-03-25T01:13:23;58.32;39.08;73.90;;
18377;Laerm;9315;52.624;13.544;2023-03-25T01:15:50;42.44;38.96;53.19;;
18377;Laerm;9315;52.624;13.544;2023-03-25T01:18:18;51.23;37.25;67.19;;
18377;Laerm;9315;52.624;13.544;2023-03-25T01:20:45;42.01;36.40;51.87;;
18377;Laerm;9315;52.624;13.544;2023-03-25T01:23:12;43.05;38.03;48.57;;
18377;Laerm;9315;52.624;13.544;2023-03-25T01:25:39;44.66;39.83;54.67;;
18377;Laerm;9315;52.624;13.544;2023-03-25T01:28:06;57.00;40.34;72.82;;
18377;Laerm;9315;52.624;13.544;2023-03-25T01:30:33;60.63;39.69;77.07;;
18377;Laerm;9315;52.624;13.544;2023-03-25T01:33:01;52.52;39.05;71.52;;
18377;Laerm;9315;52.624;13.544;2023-03-25T01:35:28;53.14;38.08;69.35;;
18377;Laerm;9315;52.624;13.544;2023-03-25T01:37:55;44.34;39.78;54.45;;
18377;Laerm;9315;52.624;13.544;2023-03-25T01:40:23;57.01;39.29;76.43;;
18377;Laerm;9315;52.624;13.544;2023-03-25T01:42:50;45.78;41.92;54.04;;
18377;Laerm;9315;52.624;13.544;2023-03-25T01:45:30;46.77;39.98;56.19;;
18377;Laerm;9315;52.624;13.544;2023-03-25T01:48:28;55.16;38.44;75.04;;
18377;Laerm;9315;52.624;13.544;2023-03-25T01:51:15;54.63;39.93;70.86;;
18377;Laerm;9315;52.624;13.544;2023-03-25T01:53:44;42.91;37.64;49.78;;
18377;Laerm;9315;52.624;13.544;2023-03-25T01:56:16;57.43;36.60;78.18;;
18377;Laerm;9315;52.624;13.544;2023-03-25T01:58:44;59.50;38.27;76.73;;
18377;Laerm;9315;52.624;13.544;2023-03-25T02:01:13;51.68;39.70;68.64;;
18377;Laerm;9315;52.624;13.544;2023-03-25T02:03:43;53.01;39.57;70.12;;
18377;Laerm;9315;52.624;13.544;2023-03-25T02:06:35;58.59;37.55;76.61;;
18377;Laerm;9315;52.624;13.544;2023-03-25T02:09:05;42.54;38.64;49.27;;
18377;Laerm;9315;52.624;13.544;2023-03-25T02:11:35;43.59;39.27;50.43;;
18377;Laerm;9315;52.624;13.544;2023-03-25T02:14:07;52.19;38.38;69.57;;
18377;Laerm;9315;52.624;13.544;2023-03-25T02:17:29;43.91;39.43;51.51;;
18377;Laerm;9315;52.624;13.544;2023-03-25T02:40:02;57.68;38.11;75.62;;
18377;Laerm;9315;52.624;13.544;2023-03-25T02:42:59;42.34;37.86;48.48;;
18377;Laerm;9315;52.624;13.544;2023-03-25T02:45:34;56.22;39.61;71.79;;
18377;Laerm;9315;52.624;13.544;2023-03-25T02:48:16;44.25;40.24;49.49;;
18377;Laerm;9315;52.624;13.544;2023-03-25T02:50:52;50.67;38.08;65.32;;
18377;Laerm;9315;52.624;13.544;2023-03-25T02:53:41;61.25;39.91;77.27;;
18377;Laerm;9315;52.624;13.544;2023-03-25T02:56:15;57.17;39.78;73.15;;
18377;Laerm;9315;52.624;13.544;2023-03-25T02:58:44;56.90;39.83;70.36;;
18377;Laerm;9315;52.624;13.544;2023-03-25T03:01:13;55.10;40.06;72.77;;
18377;Laerm;9315;52.624;13.544;2023-03-25T03:03:40;53.47;40.18;72.43;;
18377;Laerm;9315;52.624;13.544;2023-03-25T03:06:16;58.77;39.18;76.16;;
18377;Laerm;9315;52.624;13.544;2023-03-25T03:12:02;58.30;39.57;77.54;;
18377;Laerm;9315;52.624;13.544;2023-03-25T03:18:08;56.78;39.48;73.35;;
18377;Laerm;9315;52.624;13.544;2023-03-25T03:23:59;58.87;40.61;76.79;;
18377;Laerm;9315;52.624;13.544;2023-03-25T03:29:49;62.19;41.70;77.33;;
18377;Laerm;9315;52.624;13.544;2023-03-25T03:32:40;61.08;41.72;77.55;;
18377;Laerm;9315;52.624;13.544;2023-03-25T03:35:32;59.55;41.90;75.71;;
18377;Laerm;9315;52.624;13.544;2023-03-25T03:38:09;58.49;42.69;73.56;;
18377;Laerm;9315;52.624;13.544;2023-03-25T03:40:43;61.08;42.44;75.15;;
18377;Laerm;9315;52.624;13.544;2023-03-25T03:46:31;63.13;42.70;76.21;;
18377;Laerm;9315;52.624;13.544;2023-03-25T03:49:03;56.16;41.63;71.02;;
18377;Laerm;9315;52.624;13.544;2023-03-25T03:51:37;64.42;42.23;81.05;;
18377;Laerm;9315;52.624;13.544;2023-03-25T03:54:20;62.29;43.20;75.40;;
18377;Laerm;9315;52.624;13.544;2023-03-25T03:57:28;68.36;42.94;83.43;;
18377;Laerm;9315;52.624;13.544;2023-03-25T04:00:04;66.97;44.92;80.24;;
18377;Laerm;9315;52.624;13.544;2023-03-25T04:02:53;63.84;44.66;81.55;;
18377;Laerm;9315;52.624;13.544;2023-03-25T04:05:25;48.77;46.06;62.51;;
18377;Laerm;9315;52.624;13.544;2023-03-25T04:08:06;67.84;47.58;82.11;;
18377;Laerm;9315;52.624;13.544;2023-03-25T04:10:51;69.31;48.44;82.63;;
18377;Laerm;9315;52.624;13.544;2023-03-25T04:13:23;71.49;48.46;85.41;;
18377;Laerm;9315;52.624;13.544;2023-03-25T04:15:52;69.03;47.62;81.52;;
18377;Laerm;9315;52.624;13.544;2023-03-25T04:18:19;69.52;47.06;82.36;;
18377;Laerm;9315;52.624;13.544;2023-03-25T04:20:49;71.44;45.72;84.99;;
18377;Laerm;9315;52.624;13.544;2023-03-25T04:23:16;71.03;45.96;83.95;;
18377;Laerm;9315;52.624;13.544;2023-03-25T04:25:44;65.21;44.25;81.15;;
18377;Laerm;9315;52.624;13.544;2023-03-25T04:28:19;67.34;44.71;81.28;;
18377;Laerm;9315;52.624;13.544;2023-03-25T04:30:46;67.24;43.36;79.50;;
18377;Laerm;9315;52.624;13.544;2023-03-25T04:33:14;66.86;43.02;82.06;;
18377;Laerm;9315;52.624;13.544;2023-03-25T04:35:42;64.28;43.45;79.25;;
18377;Laerm;9315;52.624;13.544;2023-03-25T04:38:09;68.07;44.44;81.88;;
18377;Laerm;9315;52.624;13.544;2023-03-25T04:40:37;67.04;44.93;82.53;;
18377;Laerm;9315;52.624;13.544;2023-03-25T04:43:07;65.73;44.79;78.99;;
18377;Laerm;9315;52.624;13.544;2023-03-25T04:45:34;66.91;44.11;80.92;;
18377;Laerm;9315;52.624;13.544;2023-03-25T04:48:02;63.77;45.03;76.99;;
18377;Laerm;9315;52.624;13.544;2023-03-25T04:50:32;67.22;45.35;79.95;;
18377;Laerm;9315;52.624;13.544;2023-03-25T04:52:59;65.44;45.48;81.94;;
18377;Laerm;9315;52.624;13.544;2023-03-25T04:55:27;64.97;42.81;82.49;;
18377;Laerm;9315;52.624;13.544;2023-03-25T04:57:55;64.82;43.11;80.11;;
18377;Laerm;9315;52.624;13.544;2023-03-25T05:00:25;68.50;44.88;83.07;;
18377;Laerm;9315;52.624;13.544;2023-03-25T05:02:54;62.25;43.48;77.52;;
18377;Laerm;9315;52.624;13.544;2023-03-25T05:05:24;67.15;44.58;81.49;;
18377;Laerm;9315;52.624;13.544;2023-03-25T05:07:54;65.88;45.67;79.44;;
18377;Laerm;9315;52.624;13.544;2023-03-25T05:10:25;65.56;47.22;82.67;;
18377;Laerm;9315;52.624;13.544;2023-03-25T05:13:06;64.16;45.47;79.32;;
18377;Laerm;9315;52.624;13.544;2023-03-25T05:15:35;65.82;45.35;77.77;;
18377;Laerm;9315;52.624;13.544;2023-03-25T05:18:16;63.30;45.99;77.18;;
18377;Laerm;9315;52.624;13.544;2023-03-25T05:20:45;65.42;44.32;82.98;;
18377;Laerm;9315;52.624;13.544;2023-03-25T05:23:16;70.05;46.72;83.77;;
18377;Laerm;9315;52.624;13.544;2023-03-25T05:25:49;68.33;46.73;85.68;;
18377;Laerm;9315;52.624;13.544;2023-03-25T05:28:18;64.01;46.51;79.83;;
18377;Laerm;9315;52.624;13.544;2023-03-25T05:30:46;67.57;46.33;81.64;;
18377;Laerm;9315;52.624;13.544;2023-03-25T05:33:16;66.50;45.71;80.29;;
18377;Laerm;9315;52.624;13.544;2023-03-25T05:35:44;67.64;47.88;82.25;;
18377;Laerm;9315;52.624;13.544;2023-03-25T05:38:12;71.02;48.10;84.17;;
18377;Laerm;9315;52.624;13.544;2023-03-25T05:40:46;57.48;44.39;69.21;;
18377;Laerm;9315;52.624;13.544;2023-03-25T05:43:16;70.99;45.30;86.71;;
18377;Laerm;9315;52.624;13.544;2023-03-25T05:45:48;67.38;46.73;80.92;;
18377;Laerm;9315;52.624;13.544;2023-03-25T05:48:16;63.96;45.71;77.65;;
18377;Laerm;9315;52.624;13.544;2023-03-25T05:50:44;71.00;47.25;85.68;;
18377;Laerm;9315;52.624;13.544;2023-03-25T05:53:13;67.40;45.25;80.92;;
18377;Laerm;9315;52.624;13.544;2023-03-25T05:55:43;67.88;45.00;84.06;;
18377;Laerm;9315;52.624;13.544;2023-03-25T05:58:10;67.40;44.01;84.20;;
18377;Laerm;9315;52.624;13.544;2023-03-25T06:00:38;64.72;45.68;75.98;;
18377;Laerm;9315;52.624;13.544;2023-03-25T06:03:06;64.69;46.39;78.58;;
18377;Laerm;9315;52.624;13.544;2023-03-25T06:05:37;68.25;46.10;80.40;;
18377;Laerm;9315;52.624;13.544;2023-03-25T06:08:04;66.01;44.90;77.67;;
18377;Laerm;9315;52.624;13.544;2023-03-25T06:10:31;66.79;47.15;79.73;;
18377;Laerm;9315;52.624;13.544;2023-03-25T06:12:59;64.07;45.25;77.63;;
18377;Laerm;9315;52.624;13.544;2023-03-25T06:15:26;67.13;45.57;79.97;;
18377;Laerm;9315;52.624;13.544;2023-03-25T06:18:05;68.78;48.92;83.53;;
18377;Laerm;9315;52.624;13.544;2023-03-25T06:20:32;63.91;45.82;82.22;;
18377;Laerm;9315;52.624;13.544;2023-03-25T06:23:00;66.89;46.78;80.19;;
18377;Laerm;9315;52.624;13.544;2023-03-25T06:25:27;69.58;46.88;83.38;;
18377;Laerm;9315;52.624;13.544;2023-03-25T06:27:59;66.81;46.21;78.95;;
18377;Laerm;9315;52.624;13.544;2023-03-25T06:30:29;67.99;48.73;78.20;;
18377;Laerm;9315;52.624;13.544;2023-03-25T06:32:56;68.07;49.01;79.96;;
18377;Laerm;9315;52.624;13.544;2023-03-25T06:35:25;65.14;46.62;77.20;;
18377;Laerm;9315;52.624;13.544;2023-03-25T06:37:52;64.72;46.53;78.85;;
18377;Laerm;9315;52.624;13.544;2023-03-25T06:40:19;71.71;47.09;82.55;;
18377;Laerm;9315;52.624;13.544;2023-03-25T06:42:48;68.79;46.93;79.08;;
18377;Laerm;9315;52.624;13.544;2023-03-25T06:45:15;69.93;47.86;85.32;;
18377;Laerm;9315;52.624;13.544;2023-03-25T06:47:42;67.56;47.30;80.32;;
18377;Laerm;9315;52.624;13.544;2023-03-25T06:50:12;67.86;48.34;81.10;;
18377;Laerm;9315;52.624;13.544;2023-03-25T06:52:40;68.20;47.75;78.23;;
18377;Laerm;9315;52.624;13.544;2023-03-25T06:55:07;68.52;47.82;78.78;;
18377;Laerm;9315;52.624;13.544;2023-03-25T06:57:34;69.31;46.69;80.38;;
18377;Laerm;9315;52.624;13.544;2023-03-25T07:00:03;67.47;48.37;81.03;;
18377;Laerm;9315;52.624;13.544;2023-03-25T07:02:31;69.31;47.62;80.02;;
18377;Laerm;9315;52.624;13.544;2023-03-25T07:04:59;67.43;46.60;78.47;;
18377;Laerm;9315;52.624;13.544;2023-03-25T07:07:26;66.92;45.69;77.64;;
18377;Laerm;9315;52.624;13.544;2023-03-25T07:09:53;68.62;46.38;79.21;;
18377;Laerm;9315;52.624;13.544;2023-03-25T07:12:22;67.56;46.74;78.43;;
18377;Laerm;9315;52.624;13.544;2023-03-25T07:14:56;68.12;48.05;78.64;;
18377;Laerm;9315;52.624;13.544;2023-03-25T07:17:23;66.73;46.50;78.14;;
18377;Laerm;9315;52.624;13.544;2023-03-25T07:19:51;69.05;47.40;76.97;;
18377;Laerm;9315;52.624;13.544;2023-03-25T07:22:18;69.25;48.45;79.45;;
18377;Laerm;9315;52.624;13.544;2023-03-25T07:24:45;69.55;46.11;83.93;;
18377;Laerm;9315;52.624;13.544;2023-03-25T07:27:17;69.95;50.30;80.30;;
18377;Laerm;9315;52.624;13.544;2023-03-25T07:29:44;69.68;49.54;82.62;;
18377;Laerm;9315;52.624;13.544;2023-03-25T07:32:12;68.25;48.41;79.29;;
18377;Laerm;9315;52.624;13.544;2023-03-25T07:34:39;69.12;48.90;80.37;;
18377;Laerm;9315;52.624;13.544;2023-03-25T07:37:07;68.82;49.60;77.65;;
18377;Laerm;9315;52.624;13.544;2023-03-25T07:39:34;68.27;50.51;82.08;;
18377;Laerm;9315;52.624;13.544;2023-03-25T07:42:01;70.61;50.73;80.53;;
18377;Laerm;9315;52.624;13.544;2023-03-25T07:44:28;69.22;47.50;82.49;;
18377;Laerm;9315;52.624;13.544;2023-03-25T07:46:56;68.25;46.90;77.59;;
18377;Laerm;9315;52.624;13.544;2023-03-25T07:49:23;69.23;48.93;78.43;;
18377;Laerm;9315;52.624;13.544;2023-03-25T07:51:50;70.27;50.68;77.54;;
18377;Laerm;9315;52.624;13.544;2023-03-25T07:54:17;68.74;48.15;78.86;;
18377;Laerm;9315;52.624;13.544;2023-03-25T07:56:48;66.54;47.77;77.28;;
18377;Laerm;9315;52.624;13.544;2023-03-25T07:59:15;68.89;48.31;78.37;;
18377;Laerm;9315;52.624;13.544;2023-03-25T08:01:42;69.15;48.88;79.44;;
18377;Laerm;9315;52.624;13.544;2023-03-25T08:04:09;68.32;48.09;77.08;;
18377;Laerm;9315;52.624;13.544;2023-03-25T08:06:40;67.33;48.05;77.54;;
18377;Laerm;9315;52.624;13.544;2023-03-25T08:09:07;66.93;48.08;76.26;;
18377;Laerm;9315;52.624;13.544;2023-03-25T08:11:34;70.73;49.31;78.18;;
18377;Laerm;9315;52.624;13.544;2023-03-25T08:14:02;68.43;49.37;82.11;;
18377;Laerm;9315;52.624;13.544;2023-03-25T08:16:29;69.07;49.33;79.43;;
18377;Laerm;9315;52.624;13.544;2023-03-25T08:18:57;67.74;48.44;77.99;;
18377;Laerm;9315;52.624;13.544;2023-03-25T08:21:24;70.41;49.79;78.50;;
18377;Laerm;9315;52.624;13.544;2023-03-25T08:23:54;69.35;50.07;79.99;;
18377;Laerm;9315;52.624;13.544;2023-03-25T08:26:25;68.53;47.50;83.48;;
18377;Laerm;9315;52.624;13.544;2023-03-25T08:28:56;68.65;48.64;77.56;;
18377;Laerm;9315;52.624;13.544;2023-03-25T08:31:25;68.91;49.02;77.86;;
18377;Laerm;9315;52.624;13.544;2023-03-25T08:34:02;69.57;50.75;80.00;;
18377;Laerm;9315;52.624;13.544;2023-03-25T08:36:30;68.64;50.02;77.58;;
18377;Laerm;9315;52.624;13.544;2023-03-25T08:38:57;69.08;48.83;79.06;;
18377;Laerm;9315;52.624;13.544;2023-03-25T08:41:25;68.27;49.73;77.38;;
18377;Laerm;9315;52.624;13.544;2023-03-25T08:43:52;70.21;54.43;78.27;;
18377;Laerm;9315;52.624;13.544;2023-03-25T08:46:19;70.39;48.58;79.24;;
18377;Laerm;9315;52.624;13.544;2023-03-25T08:48:46;68.52;49.36;79.80;;
18377;Laerm;9315;52.624;13.544;2023-03-25T08:51:19;68.68;48.60;77.81;;
18377;Laerm;9315;52.624;13.544;2023-03-25T08:53:47;68.76;52.03;77.35;;
18377;Laerm;9315;52.624;13.544;2023-03-25T08:56:14;69.61;50.60;85.03;;
18377;Laerm;9315;52.624;13.544;2023-03-25T08:58:42;68.75;48.55;79.05;;
18377;Laerm;9315;52.624;13.544;2023-03-25T09:01:09;70.28;51.52;78.34;;
18377;Laerm;9315;52.624;13.544;2023-03-25T09:03:38;71.66;53.12;79.40;;
18377;Laerm;9315;52.624;13.544;2023-03-25T09:06:08;69.44;49.51;78.80;;
18377;Laerm;9315;52.624;13.544;2023-03-25T09:08:36;81.50;48.74;105.23;;
18377;Laerm;9315;52.624;13.544;2023-03-25T09:11:06;70.15;50.36;78.18;;
18377;Laerm;9315;52.624;13.544;2023-03-25T09:13:34;70.92;51.50;78.49;;
18377;Laerm;9315;52.624;13.544;2023-03-25T09:16:01;69.15;48.67;78.81;;
18377;Laerm;9315;52.624;13.544;2023-03-25T09:18:28;70.26;49.41;80.60;;
18377;Laerm;9315;52.624;13.544;2023-03-25T09:20:59;70.33;49.04;78.18;;
18377;Laerm;9315;52.624;13.544;2023-03-25T09:23:27;69.37;51.77;76.40;;
18377;Laerm;9315;52.624;13.544;2023-03-25T09:26:02;70.71;51.59;77.88;;
18377;Laerm;9315;52.624;13.544;2023-03-25T09:28:31;67.44;48.39;76.40;;
18377;Laerm;9315;52.624;13.544;2023-03-25T09:30:58;71.32;53.03;79.05;;
18377;Laerm;9315;52.624;13.544;2023-03-25T09:33:25;72.76;52.64;81.89;;
18377;Laerm;9315;52.624;13.544;2023-03-25T09:35:54;74.16;50.05;82.44;;
18377;Laerm;9315;52.624;13.544;2023-03-25T09:38:21;73.92;53.72;83.15;;
18377;Laerm;9315;52.624;13.544;2023-03-25T09:40:49;73.93;49.35;82.33;;
18377;Laerm;9315;52.624;13.544;2023-03-25T09:46:23;74.22;50.46;82.19;;
18377;Laerm;9315;52.624;13.544;2023-03-25T09:48:51;72.20;50.69;80.53;;
18377;Laerm;9315;52.624;13.544;2023-03-25T09:51:31;72.34;48.87;81.84;;
18377;Laerm;9315;52.624;13.544;2023-03-25T09:54:35;72.54;52.57;82.65;;
18377;Laerm;9315;52.624;13.544;2023-03-25T09:57:11;73.35;51.10;81.38;;
18377;Laerm;9315;52.624;13.544;2023-03-25T09:59:49;73.21;54.43;80.45;;
18377;Laerm;9315;52.624;13.544;2023-03-25T10:02:39;71.64;49.40;81.26;;
18377;Laerm;9315;52.624;13.544;2023-03-25T10:08:25;70.55;49.69;78.03;;
18377;Laerm;9315;52.624;13.544;2023-03-25T10:14:03;71.42;51.25;78.97;;
18377;Laerm;9315;52.624;13.544;2023-03-25T10:22:22;72.15;50.99;81.60;;
18377;Laerm;9315;52.624;13.544;2023-03-25T10:25:00;71.17;50.70;79.34;;
18377;Laerm;9315;52.624;13.544;2023-03-25T10:27:48;72.02;51.00;79.79;;
18377;Laerm;9315;52.624;13.544;2023-03-25T10:30:34;69.99;49.42;78.33;;
18377;Laerm;9315;52.624;13.544;2023-03-25T10:33:42;69.99;51.61;82.24;;
18377;Laerm;9315;52.624;13.544;2023-03-25T10:36:14;69.93;48.89;78.20;;
18377;Laerm;9315;52.624;13.544;2023-03-25T10:38:49;70.63;52.64;79.24;;
18377;Laerm;9315;52.624;13.544;2023-03-25T10:41:35;70.20;51.89;77.98;;
18377;Laerm;9315;52.624;13.544;2023-03-25T10:44:10;70.39;52.01;78.41;;
18377;Laerm;9315;52.624;13.544;2023-03-25T10:46:53;68.12;48.87;76.23;;
18377;Laerm;9315;52.624;13.544;2023-03-25T10:49:28;68.00;48.90;78.22;;
18377;Laerm;9315;52.624;13.544;2023-03-25T10:51:56;69.24;48.95;77.38;;
18377;Laerm;9315;52.624;13.544;2023-03-25T10:54:32;69.22;47.10;78.92;;
18377;Laerm;9315;52.624;13.544;2023-03-25T10:57:08;68.68;50.77;78.23;;
18377;Laerm;9315;52.624;13.544;2023-03-25T11:02:26;66.06;50.05;75.92;;
18377;Laerm;9315;52.624;13.544;2023-03-25T11:05:03;69.16;52.14;79.57;;
18377;Laerm;9315;52.624;13.544;2023-03-25T11:07:40;71.72;51.37;85.46;;
18377;Laerm;9315;52.624;13.544;2023-03-25T11:12:44;68.52;49.25;77.90;;
18377;Laerm;9315;52.624;13.544;2023-03-25T11:15:34;68.64;49.83;77.68;;
18377;Laerm;9315;52.624;13.544;2023-03-25T11:18:19;70.42;49.81;78.50;;
18377;Laerm;9315;52.624;13.544;2023-03-25T11:21:00;69.24;49.47;79.36;;
18377;Laerm;9315;52.624;13.544;2023-03-25T11:23:46;67.27;48.28;75.66;;
18377;Laerm;9315;52.624;13.544;2023-03-25T11:26:26;69.25;50.56;77.88;;
18377;Laerm;9315;52.624;13.544;2023-03-25T11:29:07;69.91;54.25;79.74;;
18377;Laerm;9315;52.624;13.544;2023-03-25T11:31:38;69.65;48.25;78.61;;
18377;Laerm;9315;52.624;13.544;2023-03-25T11:34:26;69.06;48.68;77.52;;
18377;Laerm;9315;52.624;13.544;2023-03-25T11:39:39;70.13;50.73;77.79;;
18377;Laerm;9315;52.624;13.544;2023-03-25T11:42:32;70.09;51.12;77.91;;
18377;Laerm;9315;52.624;13.544;2023-03-25T11:45:01;69.84;52.52;82.49;;
18377;Laerm;9315;52.624;13.544;2023-03-25T11:47:37;73.67;54.71;89.49;;
18377;Laerm;9315;52.624;13.544;2023-03-25T11:50:06;72.77;53.38;80.58;;
18377;Laerm;9315;52.624;13.544;2023-03-25T11:52:57;75.89;55.35;84.20;;
18377;Laerm;9315;52.624;13.544;2023-03-25T11:55:54;75.14;51.38;84.23;;
18377;Laerm;9315;52.624;13.544;2023-03-25T11:58:28;75.45;51.48;85.37;;
18377;Laerm;9315;52.624;13.544;2023-03-25T12:01:42;73.42;52.98;82.49;;
18377;Laerm;9315;52.624;13.544;2023-03-25T12:04:21;74.93;51.49;85.22;;
18377;Laerm;9315;52.624;13.544;2023-03-25T12:07:06;73.80;50.05;84.21;;
18377;Laerm;9315;52.624;13.544;2023-03-25T12:09:35;73.93;49.82;83.02;;
18377;Laerm;9315;52.624;13.544;2023-03-25T12:12:37;72.99;46.73;82.57;;
18377;Laerm;9315;52.624;13.544;2023-03-25T12:31:22;70.70;52.71;78.35;;
18377;Laerm;9315;52.624;13.544;2023-03-25T12:34:49;70.01;52.44;78.13;;
18377;Laerm;9315;52.624;13.544;2023-03-25T12:41:10;70.04;53.07;80.51;;
18377;Laerm;9315;52.624;13.544;2023-03-25T12:44:01;71.81;53.92;80.51;;
18377;Laerm;9315;52.624;13.544;2023-03-25T12:52:42;69.32;50.66;77.64;;
18377;Laerm;9315;52.624;13.544;2023-03-25T12:58:41;68.40;46.93;78.26;;
18377;Laerm;9315;52.624;13.544;2023-03-25T13:07:53;72.61;54.37;80.01;;
18377;Laerm;9315;52.624;13.544;2023-03-25T13:10:29;70.53;51.91;79.96;;
18377;Laerm;9315;52.624;13.544;2023-03-25T13:13:16;71.92;51.99;79.47;;
18377;Laerm;9315;52.624;13.544;2023-03-25T13:15:54;71.85;54.20;80.12;;
18377;Laerm;9315;52.624;13.544;2023-03-25T13:18:40;72.29;52.89;79.13;;
18377;Laerm;9315;52.624;13.544;2023-03-25T13:21:16;71.05;51.98;78.93;;
18377;Laerm;9315;52.624;13.544;2023-03-25T13:24:03;72.05;55.79;78.07;;
18377;Laerm;9315;52.624;13.544;2023-03-25T13:26:32;70.50;52.03;78.10;;
18377;Laerm;9315;52.624;13.544;2023-03-25T13:29:37;71.93;52.39;81.05;;
18377;Laerm;9315;52.624;13.544;2023-03-25T13:32:27;70.34;51.20;79.00;;
18377;Laerm;9315;52.624;13.544;2023-03-25T13:38:52;71.16;51.88;82.99;;
18377;Laerm;9315;52.624;13.544;2023-03-25T13:41:46;70.49;51.30;79.41;;
18377;Laerm;9315;52.624;13.544;2023-03-25T13:44:34;72.18;55.91;80.03;;
18377;Laerm;9315;52.624;13.544;2023-03-25T13:47:24;70.27;50.81;80.75;;
18377;Laerm;9315;52.624;13.544;2023-03-25T13:50:27;70.79;51.63;79.70;;
18377;Laerm;9315;52.624;13.544;2023-03-25T13:55:49;70.88;52.10;80.12;;
18377;Laerm;9315;52.624;13.544;2023-03-25T13:58:41;70.71;52.99;78.37;;
18377;Laerm;9315;52.624;13.544;2023-03-25T14:04:50;70.83;49.60;82.03;;
18377;Laerm;9315;52.624;13.544;2023-03-25T14:12:38;69.19;49.47;78.57;;
18377;Laerm;9315;52.624;13.544;2023-03-25T14:15:19;70.19;51.69;80.73;;
18377;Laerm;9315;52.624;13.544;2023-03-25T14:17:49;71.14;52.17;78.70;;
18377;Laerm;9315;52.624;13.544;2023-03-25T14:20:37;69.30;50.83;81.42;;
18377;Laerm;9315;52.624;13.544;2023-03-25T14:23:15;68.29;50.91;78.68;;
18377;Laerm;9315;52.624;13.544;2023-03-25T14:25:56;71.64;53.44;79.09;;
18377;Laerm;9315;52.624;13.544;2023-03-25T14:28:43;69.50;49.90;79.35;;
18377;Laerm;9315;52.624;13.544;2023-03-25T14:31:27;70.12;52.51;79.00;;
18377;Laerm;9315;52.624;13.544;2023-03-25T14:44:40;70.32;51.26;79.92;;
18377;Laerm;9315;52.624;13.544;2023-03-25T14:52:59;68.22;52.56;78.00;;
18377;Laerm;9315;52.624;13.544;2023-03-25T14:55:41;70.88;51.09;82.31;;
18377;Laerm;9315;52.624;13.544;2023-03-25T14:58:24;69.14;48.37;78.97;;
18377;Laerm;9315;52.624;13.544;2023-03-25T15:01:08;68.86;47.44;78.74;;
18377;Laerm;9315;52.624;13.544;2023-03-25T15:03:42;68.98;47.69;80.23;;
18377;Laerm;9315;52.624;13.544;2023-03-25T15:06:32;70.59;48.50;82.44;;
18377;Laerm;9315;52.624;13.544;2023-03-25T15:09:03;68.65;49.75;75.60;;
18377;Laerm;9315;52.624;13.544;2023-03-25T15:11:43;69.96;50.88;77.54;;
18377;Laerm;9315;52.624;13.544;2023-03-25T15:14:19;67.40;48.52;76.02;;
18377;Laerm;9315;52.624;13.544;2023-03-25T15:19:21;67.93;48.11;80.35;;
18377;Laerm;9315;52.624;13.544;2023-03-25T15:24:35;67.82;48.16;75.71;;
18377;Laerm;9315;52.624;13.544;2023-03-25T15:27:13;68.15;46.84;78.32;;
18377;Laerm;9315;52.624;13.544;2023-03-25T15:33:11;67.79;48.56;77.26;;
18377;Laerm;9315;52.624;13.544;2023-03-25T15:39:35;69.85;49.43;78.95;;
18377;Laerm;9315;52.624;13.544;2023-03-25T15:46:03;69.46;53.11;91.63;;
18377;Laerm;9315;52.624;13.544;2023-03-25T15:48:41;69.25;50.77;77.21;;
18377;Laerm;9315;52.624;13.544;2023-03-25T15:54:59;67.05;47.93;75.27;;
18377;Laerm;9315;52.624;13.544;2023-03-25T15:57:53;69.10;48.94;79.17;;
18377;Laerm;9315;52.624;13.544;2023-03-25T16:00:39;75.37;48.38;97.17;;
18377;Laerm;9315;52.624;13.544;2023-03-25T16:03:18;67.90;46.65;76.08;;
18377;Laerm;9315;52.624;13.544;2023-03-25T16:05:58;69.25;48.33;79.45;;
18377;Laerm;9315;52.624;13.544;2023-03-25T16:08:40;68.77;49.18;78.21;;
18377;Laerm;9315;52.624;13.544;2023-03-25T16:14:13;68.49;49.03;78.11;;
18377;Laerm;9315;52.624;13.544;2023-03-25T16:16:53;67.87;48.71;77.35;;
18377;Laerm;9315;52.624;13.544;2023-03-25T16:21:54;67.84;50.18;77.08;;
18377;Laerm;9315;52.624;13.544;2023-03-25T16:24:27;66.95;47.81;77.41;;
18377;Laerm;9315;52.624;13.544;2023-03-25T16:26:55;70.08;50.32;78.36;;
18377;Laerm;9315;52.624;13.544;2023-03-25T16:29:24;69.31;49.38;78.62;;
18377;Laerm;9315;52.624;13.544;2023-03-25T16:31:55;71.13;53.12;78.80;;
18377;Laerm;9315;52.624;13.544;2023-03-25T16:34:26;72.95;51.83;82.60;;
18377;Laerm;9315;52.624;13.544;2023-03-25T16:36:55;73.10;55.80;82.64;;
18377;Laerm;9315;52.624;13.544;2023-03-25T16:39:25;76.79;55.00;85.94;;
18377;Laerm;9315;52.624;13.544;2023-03-25T16:42:20;76.40;53.25;85.12;;
18377;Laerm;9315;52.624;13.544;2023-03-25T16:44:50;74.98;53.34;83.23;;
18377;Laerm;9315;52.624;13.544;2023-03-25T16:47:21;75.38;52.06;84.24;;
18377;Laerm;9315;52.624;13.544;2023-03-25T16:49:52;75.27;52.75;83.04;;
18377;Laerm;9315;52.624;13.544;2023-03-25T16:52:26;72.09;50.27;84.41;;
18377;Laerm;9315;52.624;13.544;2023-03-25T16:57:37;74.02;48.28;83.40;;